sensor_id;sensor_type;location;lat;lon;timestamp;P1;durP1;ratioP1;P2;durP2;ratioP2
44646;SDS011;56315;-33.902;151.160;2023-04-01T00:01:49;4.88;;;1.55;;
44646;SDS011;56315;-33.902;151.160;2023-04-01T00:04:16;4.78;;;1.08;;
44646;SDS011;56315;-33.902;151.160;2023-04-01T00:06:44;3.88;;;1.45;;
44646;SDS011;56315;-33.902;151.160;2023-04-01T00:09:13;7.53;;;1.55;;
44646;SDS011;56315;-33.902;151.160;2023-04-01T00:11:40;3.75;;;1.00;;
44646;SDS011;56315;-33.902;151.160;2023-04-01T00:14:08;5.47;;;1.20;;
44646;SDS011;56315;-33.902;151.160;2023-04-01T00:16:36;7.03;;;1.90;;
44646;SDS011;56315;-33.902;151.160;2023-04-01T00:19:04;6.43;;;1.85;;
44646;SDS011;56315;-33.902;151.160;2023-04-01T00:21:31;6.32;;;1.50;;
44646;SDS011;56315;-33.902;151.160;2023-04-01T00:23:58;2.97;;;1.02;;
44646;SDS011;56315;-33.902;151.160;2023-04-01T00:26:25;4.45;;;1.65;;
44646;SDS011;56315;-33.902;151.160;2023-04-01T00:28:53;4.47;;;1.20;;
44646;SDS011;56315;-33.902;151.160;2023-04-01T00:31:20;5.07;;;1.73;;
44646;SDS011;56315;-33.902;151.160;2023-04-01T00:33:47;4.60;;;1.70;;
44646;SDS011;56315;-33.902;151.160;2023-04-01T00:36:16;4.30;;;1.52;;
44646;SDS011;56315;-33.902;151.160;2023-04-01T00:38:46;4.63;;;1.50;;
44646;SDS011;56315;-33.902;151.160;2023-04-01T00:41:14;7.75;;;1.55;;
44646;SDS011;56315;-33.902;151.160;2023-04-01T00:43:43;7.50;;;1.63;;
44646;SDS011;56315;-33.902;151.160;2023-04-01T00:46:12;8.50;;;2.63;;
44646;SDS011;56315;-33.902;151.160;2023-04-01T00:48:41;8.30;;;2.20;;
44646;SDS011;56315;-33.902;151.160;2023-04-01T00:51:25;6.85;;;1.60;;
44646;SDS011;56315;-33.902;151.160;2023-04-01T00:53:56;9.82;;;1.77;;
44646;SDS011;56315;-33.902;151.160;2023-04-01T00:59:33;5.50;;;1.80;;
44646;SDS011;56315;-33.902;151.160;2023-04-01T01:02:04;7.85;;;2.15;;
44646;SDS011;56315;-33.902;151.160;2023-04-01T01:04:34;9.73;;;2.42;;
44646;SDS011;56315;-33.902;151.160;2023-04-01T01:18:33;8.18;;;2.42;;
44646;SDS011;56315;-33.902;151.160;2023-04-01T01:24:17;10.45;;;2.20;;
44646;SDS011;56315;-33.902;151.160;2023-04-01T01:27:20;11.73;;;2.83;;
44646;SDS011;56315;-33.902;151.160;2023-04-01T01:32:30;6.93;;;2.10;;
44646;SDS011;56315;-33.902;151.160;2023-04-01T01:37:40;6.35;;;2.60;;
44646;SDS011;56315;-33.902;151.160;2023-04-01T01:40:10;9.63;;;2.83;;
44646;SDS011;56315;-33.902;151.160;2023-04-01T01:42:40;7.38;;;2.20;;
44646;SDS011;56315;-33.902;151.160;2023-04-01T01:45:14;6.22;;;2.15;;
44646;SDS011;56315;-33.902;151.160;2023-04-01T01:47:44;10.18;;;2.63;;
44646;SDS011;56315;-33.902;151.160;2023-04-01T01:50:13;10.50;;;2.35;;
44646;SDS011;56315;-33.902;151.160;2023-04-01T01:52:41;8.98;;;2.30;;
44646;SDS011;56315;-33.902;151.160;2023-04-01T01:58:00;7.85;;;2.05;;
44646;SDS011;56315;-33.902;151.160;2023-04-01T02:03:43;9.38;;;2.67;;
44646;SDS011;56315;-33.902;151.160;2023-04-01T02:06:15;9.57;;;2.33;;
44646;SDS011;56315;-33.902;151.160;2023-04-01T02:08:49;9.02;;;3.78;;
44646;SDS011;56315;-33.902;151.160;2023-04-01T02:11:33;9.27;;;2.60;;
44646;SDS011;56315;-33.902;151.160;2023-04-01T02:14:23;12.95;;;2.65;;
44646;SDS011;56315;-33.902;151.160;2023-04-01T02:17:17;8.27;;;2.38;;
44646;SDS011;56315;-33.902;151.160;2023-04-01T02:22:14;10.20;;;2.38;;
44646;SDS011;56315;-33.902;151.160;2023-04-01T02:24:48;8.20;;;2.03;;
44646;SDS011;56315;-33.902;151.160;2023-04-01T02:27:18;7.22;;;2.38;;
44646;SDS011;56315;-33.902;151.160;2023-04-01T02:29:46;10.63;;;2.40;;
44646;SDS011;56315;-33.902;151.160;2023-04-01T02:32:13;11.50;;;2.58;;
44646;SDS011;56315;-33.902;151.160;2023-04-01T02:34:42;10.25;;;2.42;;
44646;SDS011;56315;-33.902;151.160;2023-04-01T02:37:11;12.60;;;3.60;;
44646;SDS011;56315;-33.902;151.160;2023-04-01T02:39:39;9.10;;;2.47;;
44646;SDS011;56315;-33.902;151.160;2023-04-01T02:42:08;11.23;;;2.28;;
44646;SDS011;56315;-33.902;151.160;2023-04-01T02:44:36;12.73;;;2.50;;
44646;SDS011;56315;-33.902;151.160;2023-04-01T02:47:03;10.05;;;2.45;;
44646;SDS011;56315;-33.902;151.160;2023-04-01T02:49:30;12.00;;;3.13;;
44646;SDS011;56315;-33.902;151.160;2023-04-01T02:51:57;10.18;;;2.60;;
44646;SDS011;56315;-33.902;151.160;2023-04-01T02:54:25;12.50;;;2.80;;
44646;SDS011;56315;-33.902;151.160;2023-04-01T02:56:52;14.60;;;2.95;;
44646;SDS011;56315;-33.902;151.160;2023-04-01T02:59:19;12.27;;;3.25;;
44646;SDS011;56315;-33.902;151.160;2023-04-01T03:01:46;12.73;;;2.75;;
44646;SDS011;56315;-33.902;151.160;2023-04-01T03:04:13;10.52;;;2.70;;
44646;SDS011;56315;-33.902;151.160;2023-04-01T03:06:40;12.30;;;3.25;;
44646;SDS011;56315;-33.902;151.160;2023-04-01T03:09:08;11.95;;;2.58;;
44646;SDS011;56315;-33.902;151.160;2023-04-01T03:11:36;11.98;;;2.30;;
44646;SDS011;56315;-33.902;151.160;2023-04-01T03:14:03;11.15;;;3.05;;
44646;SDS011;56315;-33.902;151.160;2023-04-01T03:16:30;13.70;;;2.92;;
44646;SDS011;56315;-33.902;151.160;2023-04-01T03:18:57;9.57;;;2.65;;
44646;SDS011;56315;-33.902;151.160;2023-04-01T03:21:27;12.77;;;2.33;;
44646;SDS011;56315;-33.902;151.160;2023-04-01T03:23:54;9.77;;;2.20;;
44646;SDS011;56315;-33.902;151.160;2023-04-01T03:26:21;10.25;;;2.03;;
44646;SDS011;56315;-33.902;151.160;2023-04-01T03:28:49;9.85;;;2.08;;
44646;SDS011;56315;-33.902;151.160;2023-04-01T03:31:16;9.50;;;2.28;;
44646;SDS011;56315;-33.902;151.160;2023-04-01T03:33:43;10.73;;;2.53;;
44646;SDS011;56315;-33.902;151.160;2023-04-01T03:36:11;9.77;;;1.77;;
44646;SDS011;56315;-33.902;151.160;2023-04-01T03:38:39;11.07;;;2.42;;
44646;SDS011;56315;-33.902;151.160;2023-04-01T03:41:11;12.60;;;2.50;;
44646;SDS011;56315;-33.902;151.160;2023-04-01T03:43:40;9.93;;;2.22;;
44646;SDS011;56315;-33.902;151.160;2023-04-01T03:46:07;12.50;;;2.75;;
44646;SDS011;56315;-33.902;151.160;2023-04-01T03:48:35;10.30;;;2.53;;
44646;SDS011;56315;-33.902;151.160;2023-04-01T03:51:06;10.65;;;2.40;;
44646;SDS011;56315;-33.902;151.160;2023-04-01T03:53:34;11.20;;;2.33;;
44646;SDS011;56315;-33.902;151.160;2023-04-01T03:56:07;10.48;;;2.30;;
44646;SDS011;56315;-33.902;151.160;2023-04-01T04:01:02;7.85;;;1.90;;
44646;SDS011;56315;-33.902;151.160;2023-04-01T04:03:38;8.02;;;2.38;;
44646;SDS011;56315;-33.902;151.160;2023-04-01T04:06:07;8.75;;;1.80;;
44646;SDS011;56315;-33.902;151.160;2023-04-01T04:08:38;9.07;;;2.47;;
44646;SDS011;56315;-33.902;151.160;2023-04-01T04:11:05;8.38;;;2.05;;
44646;SDS011;56315;-33.902;151.160;2023-04-01T04:13:34;7.57;;;2.10;;
44646;SDS011;56315;-33.902;151.160;2023-04-01T04:16:03;8.10;;;1.92;;
44646;SDS011;56315;-33.902;151.160;2023-04-01T04:18:30;7.50;;;2.10;;
44646;SDS011;56315;-33.902;151.160;2023-04-01T04:20:58;11.60;;;2.53;;
44646;SDS011;56315;-33.902;151.160;2023-04-01T04:23:26;6.75;;;1.85;;
44646;SDS011;56315;-33.902;151.160;2023-04-01T04:25:56;7.40;;;2.05;;
44646;SDS011;56315;-33.902;151.160;2023-04-01T04:28:26;7.70;;;1.85;;
44646;SDS011;56315;-33.902;151.160;2023-04-01T04:30:55;7.82;;;1.58;;
44646;SDS011;56315;-33.902;151.160;2023-04-01T04:33:23;7.78;;;2.03;;
44646;SDS011;56315;-33.902;151.160;2023-04-01T04:35:51;7.75;;;2.10;;
44646;SDS011;56315;-33.902;151.160;2023-04-01T04:38:22;10.30;;;2.20;;
44646;SDS011;56315;-33.902;151.160;2023-04-01T04:40:50;6.38;;;2.10;;
44646;SDS011;56315;-33.902;151.160;2023-04-01T04:43:18;8.10;;;1.80;;
44646;SDS011;56315;-33.902;151.160;2023-04-01T04:45:46;10.30;;;2.20;;
44646;SDS011;56315;-33.902;151.160;2023-04-01T04:48:14;8.95;;;1.95;;
44646;SDS011;56315;-33.902;151.160;2023-04-01T04:50:44;10.73;;;2.28;;
44646;SDS011;56315;-33.902;151.160;2023-04-01T04:53:15;8.23;;;2.03;;
44646;SDS011;56315;-33.902;151.160;2023-04-01T04:55:46;9.77;;;2.30;;
44646;SDS011;56315;-33.902;151.160;2023-04-01T04:58:15;9.20;;;2.40;;
44646;SDS011;56315;-33.902;151.160;2023-04-01T05:00:43;7.55;;;1.52;;
44646;SDS011;56315;-33.902;151.160;2023-04-01T05:03:10;11.65;;;1.92;;
44646;SDS011;56315;-33.902;151.160;2023-04-01T05:05:38;11.35;;;2.65;;
44646;SDS011;56315;-33.902;151.160;2023-04-01T05:08:06;7.53;;;2.17;;
44646;SDS011;56315;-33.902;151.160;2023-04-01T05:10:33;10.85;;;1.80;;
44646;SDS011;56315;-33.902;151.160;2023-04-01T05:13:01;12.77;;;2.63;;
44646;SDS011;56315;-33.902;151.160;2023-04-01T05:15:29;8.10;;;1.58;;
44646;SDS011;56315;-33.902;151.160;2023-04-01T05:17:56;8.35;;;2.53;;
44646;SDS011;56315;-33.902;151.160;2023-04-01T05:20:24;12.05;;;2.20;;
44646;SDS011;56315;-33.902;151.160;2023-04-01T05:22:55;7.03;;;1.60;;
44646;SDS011;56315;-33.902;151.160;2023-04-01T05:25:23;8.23;;;1.88;;
44646;SDS011;56315;-33.902;151.160;2023-04-01T05:27:51;7.53;;;1.63;;
44646;SDS011;56315;-33.902;151.160;2023-04-01T05:30:19;9.80;;;1.65;;
44646;SDS011;56315;-33.902;151.160;2023-04-01T05:32:46;4.05;;;1.27;;
44646;SDS011;56315;-33.902;151.160;2023-04-01T05:35:14;7.05;;;1.48;;
44646;SDS011;56315;-33.902;151.160;2023-04-01T05:37:42;4.50;;;1.38;;
44646;SDS011;56315;-33.902;151.160;2023-04-01T05:40:10;5.90;;;1.27;;
44646;SDS011;56315;-33.902;151.160;2023-04-01T05:42:38;9.15;;;1.63;;
44646;SDS011;56315;-33.902;151.160;2023-04-01T05:45:07;9.38;;;1.98;;
44646;SDS011;56315;-33.902;151.160;2023-04-01T05:47:36;8.07;;;2.03;;
44646;SDS011;56315;-33.902;151.160;2023-04-01T05:50:04;7.32;;;1.38;;
44646;SDS011;56315;-33.902;151.160;2023-04-01T05:52:32;3.45;;;1.30;;
44646;SDS011;56315;-33.902;151.160;2023-04-01T05:54:59;8.45;;;1.63;;
44646;SDS011;56315;-33.902;151.160;2023-04-01T05:57:27;4.80;;;1.33;;
44646;SDS011;56315;-33.902;151.160;2023-04-01T05:59:54;6.78;;;1.27;;
44646;SDS011;56315;-33.902;151.160;2023-04-01T06:02:22;5.78;;;1.85;;
44646;SDS011;56315;-33.902;151.160;2023-04-01T06:04:49;8.15;;;2.13;;
44646;SDS011;56315;-33.902;151.160;2023-04-01T06:07:29;5.35;;;1.50;;
44646;SDS011;56315;-33.902;151.160;2023-04-01T06:09:56;7.20;;;1.55;;
44646;SDS011;56315;-33.902;151.160;2023-04-01T06:13:12;5.93;;;1.42;;
44646;SDS011;56315;-33.902;151.160;2023-04-01T06:26:23;7.68;;;1.73;;
44646;SDS011;56315;-33.902;151.160;2023-04-01T06:31:40;9.32;;;1.88;;
44646;SDS011;56315;-33.902;151.160;2023-04-01T06:34:24;8.43;;;2.08;;
44646;SDS011;56315;-33.902;151.160;2023-04-01T06:37:03;7.13;;;1.40;;
44646;SDS011;56315;-33.902;151.160;2023-04-01T06:48:22;10.45;;;1.58;;
44646;SDS011;56315;-33.902;151.160;2023-04-01T06:51:01;8.40;;;1.52;;
44646;SDS011;56315;-33.902;151.160;2023-04-01T06:56:32;6.95;;;1.65;;
44646;SDS011;56315;-33.902;151.160;2023-04-01T06:59:42;5.50;;;1.67;;
44646;SDS011;56315;-33.902;151.160;2023-04-01T07:02:04;8.30;;;1.67;;
44646;SDS011;56315;-33.902;151.160;2023-04-01T07:04:37;8.70;;;2.50;;
44646;SDS011;56315;-33.902;151.160;2023-04-01T07:07:14;6.10;;;1.30;;
44646;SDS011;56315;-33.902;151.160;2023-04-01T07:09:58;7.70;;;1.60;;
44646;SDS011;56315;-33.902;151.160;2023-04-01T07:15:04;8.45;;;1.58;;
44646;SDS011;56315;-33.902;151.160;2023-04-01T07:17:55;6.00;;;1.27;;
44646;SDS011;56315;-33.902;151.160;2023-04-01T07:25:33;7.35;;;2.53;;
44646;SDS011;56315;-33.902;151.160;2023-04-01T07:28:13;8.32;;;1.35;;
44646;SDS011;56315;-33.902;151.160;2023-04-01T07:33:25;6.53;;;1.52;;
44646;SDS011;56315;-33.902;151.160;2023-04-01T07:36:33;10.48;;;1.73;;
44646;SDS011;56315;-33.902;151.160;2023-04-01T07:44:47;9.48;;;2.15;;
44646;SDS011;56315;-33.902;151.160;2023-04-01T07:56:04;5.63;;;1.35;;
44646;SDS011;56315;-33.902;151.160;2023-04-01T07:58:39;12.98;;;3.47;;
44646;SDS011;56315;-33.902;151.160;2023-04-01T08:07:13;8.27;;;2.53;;
44646;SDS011;56315;-33.902;151.160;2023-04-01T08:10:00;10.90;;;1.85;;
44646;SDS011;56315;-33.902;151.160;2023-04-01T08:20:47;8.18;;;2.13;;
44646;SDS011;56315;-33.902;151.160;2023-04-01T08:23:46;9.25;;;2.40;;
44646;SDS011;56315;-33.902;151.160;2023-04-01T08:29:22;7.50;;;1.67;;
44646;SDS011;56315;-33.902;151.160;2023-04-01T08:32:12;7.45;;;1.75;;
44646;SDS011;56315;-33.902;151.160;2023-04-01T08:35:11;8.05;;;1.90;;
44646;SDS011;56315;-33.902;151.160;2023-04-01T08:37:51;8.48;;;1.45;;
44646;SDS011;56315;-33.902;151.160;2023-04-01T08:46:32;6.82;;;1.75;;
44646;SDS011;56315;-33.902;151.160;2023-04-01T08:49:16;8.45;;;1.40;;
44646;SDS011;56315;-33.902;151.160;2023-04-01T08:57:37;7.00;;;1.88;;
44646;SDS011;56315;-33.902;151.160;2023-04-01T09:03:00;11.65;;;2.38;;
44646;SDS011;56315;-33.902;151.160;2023-04-01T09:14:26;4.53;;;1.80;;
44646;SDS011;56315;-33.902;151.160;2023-04-01T09:25:38;7.47;;;2.17;;
44646;SDS011;56315;-33.902;151.160;2023-04-01T09:34:15;7.65;;;1.67;;
44646;SDS011;56315;-33.902;151.160;2023-04-01T09:42:09;6.47;;;1.63;;
44646;SDS011;56315;-33.902;151.160;2023-04-01T09:55:48;6.78;;;1.90;;
44646;SDS011;56315;-33.902;151.160;2023-04-01T09:58:52;6.22;;;2.08;;
44646;SDS011;56315;-33.902;151.160;2023-04-01T10:12:28;8.68;;;2.15;;
44646;SDS011;56315;-33.902;151.160;2023-04-01T10:15:24;5.32;;;1.40;;
44646;SDS011;56315;-33.902;151.160;2023-04-01T10:26:06;7.18;;;1.50;;
44646;SDS011;56315;-33.902;151.160;2023-04-01T10:31:58;7.55;;;1.52;;
44646;SDS011;56315;-33.902;151.160;2023-04-01T10:40:44;9.75;;;2.03;;
44646;SDS011;56315;-33.902;151.160;2023-04-01T11:34:40;5.80;;;1.42;;
44646;SDS011;56315;-33.902;151.160;2023-04-01T11:39:59;6.43;;;1.88;;
44646;SDS011;56315;-33.902;151.160;2023-04-01T11:53:47;5.78;;;2.25;;
44646;SDS011;56315;-33.902;151.160;2023-04-01T12:21:21;6.20;;;1.40;;
44646;SDS011;56315;-33.902;151.160;2023-04-01T12:29:57;3.30;;;1.25;;
44646;SDS011;56315;-33.902;151.160;2023-04-01T12:35:20;5.25;;;1.35;;
44646;SDS011;56315;-33.902;151.160;2023-04-01T12:38:21;4.45;;;1.42;;
44646;SDS011;56315;-33.902;151.160;2023-04-01T12:41:07;3.55;;;1.10;;
44646;SDS011;56315;-33.902;151.160;2023-04-01T12:46:52;4.32;;;1.30;;
44646;SDS011;56315;-33.902;151.160;2023-04-01T12:52:03;5.28;;;1.40;;
44646;SDS011;56315;-33.902;151.160;2023-04-01T12:55:00;9.02;;;2.05;;
44646;SDS011;56315;-33.902;151.160;2023-04-01T13:00:27;5.43;;;1.50;;
44646;SDS011;56315;-33.902;151.160;2023-04-01T13:03:31;5.05;;;1.27;;
44646;SDS011;56315;-33.902;151.160;2023-04-01T13:18:10;4.88;;;1.42;;
44646;SDS011;56315;-33.902;151.160;2023-04-01T13:40:51;5.20;;;1.55;;
44646;SDS011;56315;-33.902;151.160;2023-04-01T13:46:26;9.73;;;2.00;;
44646;SDS011;56315;-33.902;151.160;2023-04-01T14:12:09;19.27;;;2.40;;
44646;SDS011;56315;-33.902;151.160;2023-04-01T14:17:50;13.30;;;2.75;;
44646;SDS011;56315;-33.902;151.160;2023-04-01T14:23:02;17.70;;;3.00;;
44646;SDS011;56315;-33.902;151.160;2023-04-01T14:26:00;12.00;;;2.10;;
44646;SDS011;56315;-33.902;151.160;2023-04-01T14:31:00;9.82;;;1.98;;
44646;SDS011;56315;-33.902;151.160;2023-04-01T14:34:02;9.43;;;2.13;;
44646;SDS011;56315;-33.902;151.160;2023-04-01T14:36:56;7.53;;;1.60;;
44646;SDS011;56315;-33.902;151.160;2023-04-01T14:40:05;11.10;;;2.78;;
44646;SDS011;56315;-33.902;151.160;2023-04-01T14:48:34;11.23;;;2.35;;
44646;SDS011;56315;-33.902;151.160;2023-04-01T14:51:31;8.43;;;2.72;;
44646;SDS011;56315;-33.902;151.160;2023-04-01T14:54:10;9.55;;;2.53;;
44646;SDS011;56315;-33.902;151.160;2023-04-01T14:56:49;9.05;;;2.78;;
44646;SDS011;56315;-33.902;151.160;2023-04-01T14:59:28;9.40;;;2.13;;
44646;SDS011;56315;-33.902;151.160;2023-04-01T15:02:03;8.43;;;2.45;;
44646;SDS011;56315;-33.902;151.160;2023-04-01T15:04:53;7.35;;;2.63;;
44646;SDS011;56315;-33.902;151.160;2023-04-01T15:24:15;11.13;;;1.83;;
44646;SDS011;56315;-33.902;151.160;2023-04-01T15:29:51;16.20;;;1.77;;
44646;SDS011;56315;-33.902;151.160;2023-04-01T15:46:09;11.48;;;1.52;;
44646;SDS011;56315;-33.902;151.160;2023-04-01T15:57:01;18.08;;;2.33;;
44646;SDS011;56315;-33.902;151.160;2023-04-01T16:05:25;17.17;;;2.67;;
44646;SDS011;56315;-33.902;151.160;2023-04-01T16:18:40;18.15;;;1.98;;
44646;SDS011;56315;-33.902;151.160;2023-04-01T16:21:21;11.18;;;1.40;;
44646;SDS011;56315;-33.902;151.160;2023-04-01T16:24:00;8.45;;;1.55;;
44646;SDS011;56315;-33.902;151.160;2023-04-01T16:26:54;9.85;;;1.10;;
44646;SDS011;56315;-33.902;151.160;2023-04-01T16:29:40;14.10;;;1.42;;
44646;SDS011;56315;-33.902;151.160;2023-04-01T16:35:35;15.73;;;2.15;;
44646;SDS011;56315;-33.902;151.160;2023-04-01T16:38:24;5.45;;;1.08;;
44646;SDS011;56315;-33.902;151.160;2023-04-01T16:41:17;8.73;;;0.88;;
44646;SDS011;56315;-33.902;151.160;2023-04-01T16:44:19;11.30;;;1.42;;
44646;SDS011;56315;-33.902;151.160;2023-04-01T16:46:51;19.80;;;2.35;;
44646;SDS011;56315;-33.902;151.160;2023-04-01T16:49:29;10.25;;;1.20;;
44646;SDS011;56315;-33.902;151.160;2023-04-01T16:52:29;15.43;;;2.25;;
44646;SDS011;56315;-33.902;151.160;2023-04-01T16:55:18;9.32;;;1.70;;
44646;SDS011;56315;-33.902;151.160;2023-04-01T16:57:51;18.65;;;2.35;;
44646;SDS011;56315;-33.902;151.160;2023-04-01T17:00:26;10.32;;;1.48;;
44646;SDS011;56315;-33.902;151.160;2023-04-01T17:03:04;11.43;;;1.45;;
44646;SDS011;56315;-33.902;151.160;2023-04-01T17:06:03;11.65;;;1.92;;
44646;SDS011;56315;-33.902;151.160;2023-04-01T17:25:33;19.15;;;2.35;;
44646;SDS011;56315;-33.902;151.160;2023-04-01T17:34:00;11.85;;;2.03;;
44646;SDS011;56315;-33.902;151.160;2023-04-01T17:42:19;24.00;;;3.60;;
44646;SDS011;56315;-33.902;151.160;2023-04-01T17:51:21;26.88;;;2.72;;
44646;SDS011;56315;-33.902;151.160;2023-04-01T17:56:53;26.52;;;2.83;;
44646;SDS011;56315;-33.902;151.160;2023-04-01T18:02:17;23.77;;;4.10;;
44646;SDS011;56315;-33.902;151.160;2023-04-01T18:08:41;9.23;;;1.60;;
44646;SDS011;56315;-33.902;151.160;2023-04-01T18:11:16;12.63;;;2.05;;
44646;SDS011;56315;-33.902;151.160;2023-04-01T18:22:41;19.88;;;2.38;;
44646;SDS011;56315;-33.902;151.160;2023-04-01T18:28:14;21.83;;;3.40;;
44646;SDS011;56315;-33.902;151.160;2023-04-01T18:30:57;22.33;;;3.33;;
44646;SDS011;56315;-33.902;151.160;2023-04-01T18:41:53;17.25;;;1.92;;
44646;SDS011;56315;-33.902;151.160;2023-04-01T18:50:14;15.60;;;2.42;;
44646;SDS011;56315;-33.902;151.160;2023-04-01T18:55:56;14.30;;;2.58;;
44646;SDS011;56315;-33.902;151.160;2023-04-01T19:06:53;22.15;;;2.90;;
44646;SDS011;56315;-33.902;151.160;2023-04-01T19:09:33;16.17;;;3.33;;
44646;SDS011;56315;-33.902;151.160;2023-04-01T19:17:35;19.92;;;2.78;;
44646;SDS011;56315;-33.902;151.160;2023-04-01T19:20:33;12.75;;;1.85;;
44646;SDS011;56315;-33.902;151.160;2023-04-01T19:26:04;24.92;;;3.30;;
44646;SDS011;56315;-33.902;151.160;2023-04-01T19:28:45;22.95;;;4.20;;
44646;SDS011;56315;-33.902;151.160;2023-04-01T19:31:44;23.77;;;3.53;;
44646;SDS011;56315;-33.902;151.160;2023-04-01T19:36:59;22.80;;;2.63;;
44646;SDS011;56315;-33.902;151.160;2023-04-01T19:40:04;26.95;;;3.58;;
44646;SDS011;56315;-33.902;151.160;2023-04-01T19:58:33;29.50;;;4.18;;
44646;SDS011;56315;-33.902;151.160;2023-04-01T20:01:03;20.52;;;2.38;;
44646;SDS011;56315;-33.902;151.160;2023-04-01T20:12:30;21.92;;;2.70;;
44646;SDS011;56315;-33.902;151.160;2023-04-01T20:15:00;24.30;;;4.78;;
44646;SDS011;56315;-33.902;151.160;2023-04-01T20:17:47;19.98;;;3.25;;
44646;SDS011;56315;-33.902;151.160;2023-04-01T20:20:20;22.67;;;2.85;;
44646;SDS011;56315;-33.902;151.160;2023-04-01T20:26:11;23.00;;;2.85;;
44646;SDS011;56315;-33.902;151.160;2023-04-01T20:28:45;19.10;;;3.22;;
44646;SDS011;56315;-33.902;151.160;2023-04-01T20:32:06;16.65;;;2.40;;
44646;SDS011;56315;-33.902;151.160;2023-04-01T20:34:36;15.93;;;3.00;;
44646;SDS011;56315;-33.902;151.160;2023-04-01T20:37:30;14.88;;;2.90;;
44646;SDS011;56315;-33.902;151.160;2023-04-01T20:45:46;22.58;;;3.72;;
44646;SDS011;56315;-33.902;151.160;2023-04-01T20:51:30;17.23;;;3.65;;
44646;SDS011;56315;-33.902;151.160;2023-04-01T21:02:42;13.57;;;2.38;;
44646;SDS011;56315;-33.902;151.160;2023-04-01T21:10:26;8.98;;;1.52;;
44646;SDS011;56315;-33.902;151.160;2023-04-01T21:47:26;7.50;;;2.58;;
44646;SDS011;56315;-33.902;151.160;2023-04-01T22:09:48;5.35;;;1.65;;
44646;SDS011;56315;-33.902;151.160;2023-04-01T22:12:38;5.03;;;1.67;;
44646;SDS011;56315;-33.902;151.160;2023-04-01T22:20:44;6.07;;;1.60;;
44646;SDS011;56315;-33.902;151.160;2023-04-01T22:31:27;4.03;;;1.73;;
44646;SDS011;56315;-33.902;151.160;2023-04-01T22:34:17;4.63;;;1.80;;
44646;SDS011;56315;-33.902;151.160;2023-04-01T22:47:40;4.03;;;1.35;;
44646;SDS011;56315;-33.902;151.160;2023-04-01T22:52:56;5.63;;;1.52;;
44646;SDS011;56315;-33.902;151.160;2023-04-01T22:55:40;4.78;;;1.52;;
44646;SDS011;56315;-33.902;151.160;2023-04-01T22:58:54;6.45;;;1.30;;
44646;SDS011;56315;-33.902;151.160;2023-04-01T23:01:10;4.05;;;1.20;;
44646;SDS011;56315;-33.902;151.160;2023-04-01T23:03:42;5.82;;;1.35;;
44646;SDS011;56315;-33.902;151.160;2023-04-01T23:06:15;5.55;;;1.48;;
44646;SDS011;56315;-33.902;151.160;2023-04-01T23:11:28;4.82;;;1.60;;
44646;SDS011;56315;-33.902;151.160;2023-04-01T23:22:31;3.10;;;1.00;;
44646;SDS011;56315;-33.902;151.160;2023-04-01T23:35:48;6.22;;;1.27;;
44646;SDS011;56315;-33.902;151.160;2023-04-01T23:38:22;4.28;;;1.13;;
44646;SDS011;56315;-33.902;151.160;2023-04-01T23:40:52;6.18;;;1.35;;
44646;SDS011;56315;-33.902;151.160;2023-04-01T23:43:22;6.43;;;0.90;;
44646;SDS011;56315;-33.902;151.160;2023-04-01T23:45:56;4.82;;;1.17;;
44646;SDS011;56315;-33.902;151.160;2023-04-01T23:48:36;5.18;;;1.10;;
44646;SDS011;56315;-33.902;151.160;2023-04-01T23:51:10;8.48;;;1.50;;
44646;SDS011;56315;-33.902;151.160;2023-04-01T23:53:55;9.60;;;1.63;;
44646;SDS011;56315;-33.902;151.160;2023-04-01T23:56:41;8.98;;;1.92;;
44646;SDS011;56315;-33.902;151.160;2023-04-01T23:59:18;6.22;;;1.30;;
